Time;durP1;ratioP1;P1;durP2;ratioP2;P2;SDS_P1;SDS_P2;PMS_P1;PMS_P2;Temp;Humidity;BMP_temperature;BMP_pressure;BME280_temperature;BME280_humidity;BME280_pressure;Samples;Min_cycle;Max_cycle;Signal;HPM_P1;HPM_P2
2022/02/27 00:01:30;;;;;;;12.73;9.43;;;;;;;;;;5030635;28;20287;-81
2022/02/27 00:03:57;;;;;;;13.27;9.43;;;;;;;;;;5029483;28;20195;-81
2022/02/27 00:06:24;;;;;;;13.73;9.10;;;;;;;;;;5029444;28;20255;-81
2022/02/27 00:08:51;;;;;;;13.70;9.73;;;;;;;;;;5030977;28;20199;-80
2022/02/27 00:11:19;;;;;;;14.00;10.03;;;;;;;;;;5030709;28;20256;-80
2022/02/27 00:13:46;;;;;;;11.23;8.80;;;;;;;;;;5030780;28;20625;-81
2022/02/27 00:16:13;;;;;;;13.53;9.50;;;;;;;;;;5029872;28;20560;-80
2022/02/27 00:18:42;;;;;;;14.10;10.10;;;;;;;;;;5030319;28;20207;-80
2022/02/27 00:21:09;;;;;;;14.17;9.77;;;;;;;;;;5030414;28;20294;-80
2022/02/27 00:23:36;;;;;;;17.97;10.97;;;;;;;;;;5030567;28;20199;-81
2022/02/27 00:26:03;;;;;;;13.10;10.10;;;;;;;;;;5030461;28;20199;-80
2022/02/27 00:28:31;;;;;;;12.20;9.67;;;;;;;;;;5030148;28;20207;-80
2022/02/27 00:30:58;;;;;;;10.77;9.30;;;;;;;;;;5030385;28;20249;-80
2022/02/27 00:33:25;;;;;;;15.47;11.40;;;;;;;;;;5030408;28;20249;-80
2022/02/27 00:35:54;;;;;;;15.77;10.47;;;;;;;;;;5030120;28;20199;-80
2022/02/27 00:38:21;;;;;;;14.07;10.03;;;;;;;;;;5030183;28;20191;-81
2022/02/27 00:40:48;;;;;;;15.33;9.83;;;;;;;;;;5030464;28;20590;-80
2022/02/27 00:43:15;;;;;;;12.83;9.83;;;;;;;;;;5030389;28;20202;-80
2022/02/27 00:45:42;;;;;;;13.43;11.10;;;;;;;;;;5030215;28;20195;-81
2022/02/27 00:48:09;;;;;;;12.67;10.23;;;;;;;;;;5029911;28;20203;-80
2022/02/27 00:50:37;;;;;;;13.57;11.27;;;;;;;;;;5030265;28;20294;-80
2022/02/27 00:53:06;;;;;;;14.60;10.77;;;;;;;;;;5033946;28;20243;-80
2022/02/27 00:55:33;;;;;;;15.20;11.30;;;;;;;;;;5036269;28;20203;-80
2022/02/27 00:58:00;;;;;;;14.50;11.37;;;;;;;;;;5029784;28;20198;-80
2022/02/27 01:00:27;;;;;;;13.00;10.30;;;;;;;;;;5029926;28;20667;-80
2022/02/27 01:02:55;;;;;;;14.33;10.37;;;;;;;;;;5029752;28;20231;-80
2022/02/27 01:05:22;;;;;;;17.57;11.43;;;;;;;;;;5029873;28;20211;-80
2022/02/27 01:07:49;;;;;;;12.33;9.90;;;;;;;;;;5029748;28;20698;-81
2022/02/27 01:10:18;;;;;;;15.87;10.30;;;;;;;;;;5030011;28;20293;-80
2022/02/27 01:12:45;;;;;;;16.97;10.50;;;;;;;;;;5029412;28;20206;-81
2022/02/27 01:15:12;;;;;;;12.87;10.30;;;;;;;;;;5029805;28;20218;-80
2022/02/27 01:17:39;;;;;;;15.40;11.63;;;;;;;;;;5029587;28;20209;-80
2022/02/27 01:20:08;;;;;;;15.40;11.10;;;;;;;;;;5029811;28;20259;-81
2022/02/27 01:22:35;;;;;;;16.77;10.37;;;;;;;;;;5029149;28;20667;-80
2022/02/27 01:25:03;;;;;;;12.50;11.20;;;;;;;;;;5029683;28;20197;-80
2022/02/27 01:27:31;;;;;;;14.17;10.30;;;;;;;;;;5029444;28;20218;-81
2022/02/27 01:29:58;;;;;;;15.17;10.47;;;;;;;;;;5029269;28;20230;-81
2022/02/27 01:32:26;;;;;;;13.90;10.87;;;;;;;;;;5029279;28;20198;-81
2022/02/27 01:34:53;;;;;;;14.23;10.10;;;;;;;;;;5029086;28;20223;-80
2022/02/27 01:37:20;;;;;;;15.67;11.30;;;;;;;;;;5029416;28;20199;-81
2022/02/27 01:39:48;;;;;;;17.07;11.33;;;;;;;;;;5029824;28;20199;-80
2022/02/27 01:42:16;;;;;;;13.83;11.50;;;;;;;;;;5029091;28;20205;-80
2022/02/27 01:44:47;;;;;;;15.90;11.50;;;;;;;;;;5029313;28;20203;-79
2022/02/27 01:47:14;;;;;;;15.10;11.67;;;;;;;;;;5029180;28;20189;-79
2022/02/27 01:49:44;;;;;;;12.67;10.67;;;;;;;;;;5029162;28;20203;-79
2022/02/27 01:52:12;;;;;;;16.53;11.63;;;;;;;;;;5029901;28;20207;-80
2022/02/27 01:54:39;;;;;;;15.13;12.07;;;;;;;;;;5038826;28;20230;-80
2022/02/27 01:57:07;;;;;;;15.13;11.87;;;;;;;;;;5028916;28;20195;-80
2022/02/27 01:59:34;;;;;;;15.80;11.40;;;;;;;;;;5029160;28;20198;-80
2022/02/27 02:02:04;;;;;;;13.80;11.60;;;;;;;;;;5028783;28;20195;-79
2022/02/27 02:04:31;;;;;;;15.87;12.43;;;;;;;;;;5029226;28;20206;-80
2022/02/27 02:06:58;;;;;;;14.13;10.80;;;;;;;;;;5028921;28;20290;-79
2022/02/27 02:09:25;;;;;;;13.50;11.10;;;;;;;;;;5029032;28;20195;-79
2022/02/27 02:11:53;;;;;;;13.07;10.90;;;;;;;;;;5028748;28;20198;-79
2022/02/27 02:14:21;;;;;;;19.07;12.00;;;;;;;;;;5028717;28;20606;-79
2022/02/27 02:16:49;;;;;;;14.97;11.30;;;;;;;;;;5028814;28;20199;-81
2022/02/27 02:19:20;;;;;;;15.33;12.37;;;;;;;;;;5028870;28;20290;-79
2022/02/27 02:21:51;;;;;;;17.30;11.73;;;;;;;;;;5028406;28;20183;-79
2022/02/27 02:24:19;;;;;;;17.27;11.80;;;;;;;;;;5028827;28;20681;-79
2022/02/27 02:26:47;;;;;;;17.63;12.10;;;;;;;;;;5028913;28;20636;-79
2022/02/27 02:29:16;;;;;;;15.33;11.83;;;;;;;;;;5028481;28;20742;-79
2022/02/27 02:31:44;;;;;;;15.23;11.70;;;;;;;;;;5028794;28;20187;-79
2022/02/27 02:34:13;;;;;;;13.37;11.73;;;;;;;;;;5028591;28;20691;-79
2022/02/27 02:36:40;;;;;;;21.43;13.03;;;;;;;;;;5028391;28;20207;-79
2022/02/27 02:39:11;;;;;;;17.90;12.20;;;;;;;;;;5028762;28;20205;-79
2022/02/27 02:41:38;;;;;;;17.53;12.83;;;;;;;;;;5031901;28;20191;-79
2022/02/27 02:44:06;;;;;;;17.67;12.97;;;;;;;;;;5032055;28;20198;-79
2022/02/27 02:46:35;;;;;;;14.80;13.20;;;;;;;;;;5031829;28;20612;-78
2022/02/27 02:49:02;;;;;;;18.03;12.73;;;;;;;;;;5031954;28;20202;-79
2022/02/27 02:51:29;;;;;;;18.13;12.10;;;;;;;;;;5031719;28;20202;-79
2022/02/27 02:53:57;;;;;;;19.47;13.23;;;;;;;;;;5040663;28;20600;-79
2022/02/27 02:56:25;;;;;;;16.93;13.57;;;;;;;;;;5046973;28;20908;-78
2022/02/27 02:58:53;;;;;;;17.77;13.30;;;;;;;;;;5032164;28;20207;-79
2022/02/27 03:01:22;;;;;;;20.63;13.83;;;;;;;;;;5031575;28;20195;-79
2022/02/27 03:03:51;;;;;;;16.77;12.87;;;;;;;;;;5031717;28;20202;-79
2022/02/27 03:06:18;;;;;;;16.60;12.53;;;;;;;;;;5031559;28;20203;-79
2022/02/27 03:08:47;;;;;;;15.70;13.40;;;;;;;;;;5031546;28;20199;-78
2022/02/27 03:11:15;;;;;;;21.53;14.43;;;;;;;;;;5031818;28;20202;-79
2022/02/27 03:13:43;;;;;;;20.67;12.40;;;;;;;;;;5031174;28;20207;-78
2022/02/27 03:16:11;;;;;;;16.73;13.40;;;;;;;;;;5031729;28;20222;-79
2022/02/27 03:18:38;;;;;;;15.00;12.10;;;;;;;;;;5031455;28;20671;-78
2022/02/27 03:21:06;;;;;;;15.73;12.90;;;;;;;;;;5031208;28;20195;-79
2022/02/27 03:23:34;;;;;;;18.90;13.27;;;;;;;;;;5031471;28;20295;-80
2022/02/27 03:26:02;;;;;;;15.83;12.57;;;;;;;;;;5031612;28;20209;-80
2022/02/27 03:28:29;;;;;;;16.63;13.10;;;;;;;;;;5031700;28;20195;-80
2022/02/27 03:30:58;;;;;;;18.50;14.00;;;;;;;;;;5030964;28;20231;-80
2022/02/27 03:33:25;;;;;;;17.10;12.57;;;;;;;;;;5031265;28;20203;-80
2022/02/27 03:35:52;;;;;;;16.33;12.43;;;;;;;;;;5031419;28;20269;-80
2022/02/27 03:38:19;;;;;;;16.00;13.00;;;;;;;;;;5031066;28;20206;-80
2022/02/27 03:40:47;;;;;;;20.13;13.60;;;;;;;;;;5031089;28;20198;-80
2022/02/27 03:43:15;;;;;;;14.93;13.17;;;;;;;;;;5031182;28;20209;-80
2022/02/27 03:45:42;;;;;;;19.73;14.07;;;;;;;;;;5031366;28;20209;-80
2022/02/27 03:48:11;;;;;;;18.00;12.20;;;;;;;;;;5031359;28;20282;-80
2022/02/27 03:50:38;;;;;;;18.27;10.60;;;;;;;;;;5030989;28;20589;-80
2022/02/27 03:53:05;;;;;;;14.17;11.63;;;;;;;;;;5033101;28;20199;-80
2022/02/27 03:55:32;;;;;;;18.50;12.80;;;;;;;;;;5048448;28;20225;-80
2022/02/27 03:57:59;;;;;;;15.37;13.13;;;;;;;;;;5031189;28;20220;-80
2022/02/27 04:00:26;;;;;;;15.50;11.90;;;;;;;;;;5030821;28;20191;-80
2022/02/27 04:02:54;;;;;;;17.07;12.83;;;;;;;;;;5030594;28;20216;-79
2022/02/27 04:05:22;;;;;;;13.97;12.00;;;;;;;;;;5030559;28;20277;-80
2022/02/27 04:07:50;;;;;;;12.83;10.80;;;;;;;;;;5030634;28;20203;-80
2022/02/27 04:10:17;;;;;;;17.97;11.27;;;;;;;;;;5030658;28;20293;-80
2022/02/27 04:12:44;;;;;;;17.90;12.40;;;;;;;;;;5030246;28;20258;-80
2022/02/27 04:15:11;;;;;;;18.13;12.77;;;;;;;;;;5030494;28;20226;-80
2022/02/27 04:17:39;;;;;;;13.67;11.73;;;;;;;;;;5030364;28;20671;-80
2022/02/27 04:20:07;;;;;;;15.80;11.57;;;;;;;;;;5030300;28;20199;-80
2022/02/27 04:22:36;;;;;;;15.97;11.40;;;;;;;;;;5030360;28;20198;-80
2022/02/27 04:25:04;;;;;;;13.87;12.13;;;;;;;;;;5030571;28;20198;-80
2022/02/27 04:27:31;;;;;;;15.23;11.60;;;;;;;;;;5030318;28;20687;-79
2022/02/27 04:29:58;;;;;;;17.10;12.80;;;;;;;;;;5030370;28;20230;-80
2022/02/27 04:32:25;;;;;;;15.60;11.63;;;;;;;;;;5030262;28;20590;-80
2022/02/27 04:34:52;;;;;;;12.37;11.07;;;;;;;;;;5030214;28;20234;-80
2022/02/27 04:37:20;;;;;;;13.87;11.27;;;;;;;;;;5030161;28;20205;-80
2022/02/27 04:39:48;;;;;;;17.00;14.43;;;;;;;;;;5030590;28;20216;-80
2022/02/27 04:42:16;;;;;;;17.67;14.87;;;;;;;;;;5030184;28;20317;-80
2022/02/27 04:44:43;;;;;;;18.60;15.23;;;;;;;;;;5028137;28;20294;-81
2022/02/27 04:47:10;;;;;;;21.27;16.00;;;;;;;;;;5029699;28;20607;-80
2022/02/27 04:49:37;;;;;;;16.77;13.40;;;;;;;;;;5029831;28;20191;-80
2022/02/27 04:52:05;;;;;;;20.70;15.17;;;;;;;;;;5029448;28;20303;-80
2022/02/27 04:54:33;;;;;;;25.40;17.63;;;;;;;;;;5037638;28;20217;-80
2022/02/27 04:57:01;;;;;;;16.60;14.00;;;;;;;;;;5032548;28;20214;-81
2022/02/27 04:59:28;;;;;;;19.23;13.90;;;;;;;;;;5030033;28;20203;-80
2022/02/27 05:01:56;;;;;;;18.70;14.23;;;;;;;;;;5029145;28;20206;-80
2022/02/27 05:04:23;;;;;;;22.10;17.00;;;;;;;;;;5029447;28;20197;-80
2022/02/27 05:06:50;;;;;;;13.13;11.67;;;;;;;;;;5029544;28;20289;-80
2022/02/27 05:09:19;;;;;;;20.03;16.57;;;;;;;;;;5029644;28;20729;-80
2022/02/27 05:11:46;;;;;;;17.87;14.87;;;;;;;;;;5029248;28;20199;-81
2022/02/27 05:14:15;;;;;;;17.53;15.60;;;;;;;;;;5029448;28;20195;-80
2022/02/27 05:16:43;;;;;;;17.53;11.83;;;;;;;;;;5029643;28;20642;-80
2022/02/27 05:19:10;;;;;;;16.10;12.80;;;;;;;;;;5029448;28;20235;-80
2022/02/27 05:21:37;;;;;;;15.13;12.57;;;;;;;;;;5029031;28;20194;-80
2022/02/27 05:24:05;;;;;;;15.70;12.40;;;;;;;;;;5029354;28;20194;-80
2022/02/27 05:26:32;;;;;;;13.50;11.03;;;;;;;;;;5029612;28;20210;-80
2022/02/27 05:28:59;;;;;;;14.53;11.40;;;;;;;;;;5029246;28;20701;-80
2022/02/27 05:31:28;;;;;;;13.33;11.47;;;;;;;;;;5029346;28;20643;-80
2022/02/27 05:33:55;;;;;;;14.57;13.07;;;;;;;;;;5029337;28;20209;-81
2022/02/27 05:36:22;;;;;;;13.77;11.93;;;;;;;;;;5029495;28;20222;-80
2022/02/27 05:38:50;;;;;;;16.37;14.67;;;;;;;;;;5029583;28;20206;-80
2022/02/27 05:41:17;;;;;;;14.03;11.97;;;;;;;;;;5029529;28;20195;-80
2022/02/27 05:43:44;;;;;;;15.33;11.87;;;;;;;;;;5029057;28;20205;-80
2022/02/27 05:46:11;;;;;;;14.70;11.90;;;;;;;;;;5029190;28;20198;-80
2022/02/27 05:48:40;;;;;;;13.53;10.93;;;;;;;;;;5035785;28;20212;-80
2022/02/27 05:51:07;;;;;;;17.73;12.23;;;;;;;;;;5033146;28;20207;-80
2022/02/27 05:53:34;;;;;;;16.47;12.40;;;;;;;;;;5029175;28;20225;-80
2022/02/27 05:56:02;;;;;;;18.33;16.57;;;;;;;;;;5029035;28;20226;-80
2022/02/27 05:58:30;;;;;;;27.03;17.93;;;;;;;;;;5031374;28;20225;-80
2022/02/27 06:00:58;;;;;;;29.33;18.80;;;;;;;;;;5038010;28;20211;-80
2022/02/27 06:03:25;;;;;;;22.30;16.20;;;;;;;;;;5029225;28;20619;-81
2022/02/27 06:05:54;;;;;;;26.50;16.53;;;;;;;;;;5028799;28;20667;-81
2022/02/27 06:08:22;;;;;;;18.87;14.10;;;;;;;;;;5028884;28;20199;-81
2022/02/27 06:10:49;;;;;;;14.53;12.07;;;;;;;;;;5028457;28;20685;-80
2022/02/27 06:13:16;;;;;;;24.03;18.97;;;;;;;;;;5028685;28;20289;-80
2022/02/27 06:15:43;;;;;;;36.73;25.03;;;;;;;;;;5031086;28;20229;-80
2022/02/27 06:18:10;;;;;;;96.10;62.00;;;;;;;;;;5032217;28;20207;-81
2022/02/27 06:20:38;;;;;;;33.83;24.60;;;;;;;;;;5032306;28;20582;-80
2022/02/27 06:23:09;;;;;;;26.60;20.87;;;;;;;;;;5032094;28;20262;-80
2022/02/27 06:25:36;;;;;;;23.90;21.50;;;;;;;;;;5032350;28;20187;-81
2022/02/27 06:28:04;;;;;;;34.33;28.43;;;;;;;;;;5032179;28;20198;-80
2022/02/27 06:30:31;;;;;;;27.70;22.83;;;;;;;;;;5032026;28;20226;-81
2022/02/27 06:32:59;;;;;;;26.20;20.77;;;;;;;;;;5031994;28;20194;-81
2022/02/27 06:35:26;;;;;;;32.67;28.60;;;;;;;;;;5031805;28;20218;-80
2022/02/27 06:37:54;;;;;;;22.23;18.17;;;;;;;;;;5031924;28;20221;-81
2022/02/27 06:40:22;;;;;;;28.47;23.70;;;;;;;;;;5032043;28;20195;-81
2022/02/27 06:42:50;;;;;;;43.03;38.37;;;;;;;;;;5031976;28;20225;-81
2022/02/27 06:45:18;;;;;;;25.73;22.17;;;;;;;;;;5031856;28;20207;-81
2022/02/27 06:47:45;;;;;;;57.73;50.00;;;;;;;;;;5032036;28;20210;-80
2022/02/27 06:50:13;;;;;;;35.13;31.07;;;;;;;;;;5031874;28;20201;-80
2022/02/27 06:52:41;;;;;;;35.93;29.97;;;;;;;;;;5031564;28;20713;-80
2022/02/27 06:55:09;;;;;;;46.00;33.20;;;;;;;;;;5031844;28;20259;-80
2022/02/27 06:57:37;;;;;;;48.87;36.57;;;;;;;;;;5031606;28;20206;-81
2022/02/27 07:00:09;;;;;;;39.17;28.70;;;;;;;;;;5031657;28;20199;-80
2022/02/27 07:02:36;;;;;;;212.40;92.90;;;;;;;;;;5031892;28;20574;-81
2022/02/27 07:05:04;;;;;;;111.43;61.87;;;;;;;;;;5031863;28;20198;-81
2022/02/27 07:07:31;;;;;;;44.73;31.37;;;;;;;;;;5030573;28;20210;-81
2022/02/27 07:10:00;;;;;;;141.57;88.27;;;;;;;;;;5031751;28;20671;-80
2022/02/27 07:12:27;;;;;;;66.10;45.80;;;;;;;;;;5031435;28;20199;-80
2022/02/27 07:14:56;;;;;;;50.07;39.00;;;;;;;;;;5031600;28;20238;-80
2022/02/27 07:17:23;;;;;;;34.77;26.73;;;;;;;;;;5031321;28;20222;-80
2022/02/27 07:19:50;;;;;;;23.40;18.87;;;;;;;;;;5031423;28;20202;-81
2022/02/27 07:22:18;;;;;;;34.00;30.77;;;;;;;;;;5030944;28;20206;-80
2022/02/27 07:24:45;;;;;;;23.53;21.00;;;;;;;;;;5031536;28;20221;-80
2022/02/27 07:27:12;;;;;;;28.93;25.80;;;;;;;;;;5031211;28;20216;-81
2022/02/27 07:29:40;;;;;;;37.93;30.53;;;;;;;;;;5031125;28;20226;-80
2022/02/27 07:32:11;;;;;;;20.20;16.87;;;;;;;;;;5031171;28;20199;-81
2022/02/27 07:34:38;;;;;;;17.20;11.97;;;;;;;;;;5031425;28;20187;-80
2022/02/27 07:37:05;;;;;;;17.77;14.83;;;;;;;;;;5031034;28;20291;-80
2022/02/27 07:39:32;;;;;;;30.00;21.17;;;;;;;;;;5031130;28;20203;-80
2022/02/27 07:42:00;;;;;;;24.03;19.80;;;;;;;;;;5031358;28;20195;-81
2022/02/27 07:44:28;;;;;;;24.83;18.10;;;;;;;;;;5031057;28;20209;-80
2022/02/27 07:46:55;;;;;;;19.03;12.37;;;;;;;;;;5030910;28;20194;-80
2022/02/27 07:49:24;;;;;;;10.90;9.87;;;;;;;;;;5031014;28;20683;-80
2022/02/27 07:51:51;;;;;;;13.87;10.80;;;;;;;;;;5030584;28;20203;-81
2022/02/27 07:54:18;;;;;;;16.37;9.57;;;;;;;;;;5031212;28;20211;-80
2022/02/27 07:56:45;;;;;;;12.57;8.80;;;;;;;;;;5030605;28;20686;-80
2022/02/27 07:59:13;;;;;;;12.53;9.53;;;;;;;;;;5030955;28;20198;-80
2022/02/27 08:01:40;;;;;;;9.67;8.70;;;;;;;;;;5030873;28;20199;-80
2022/02/27 08:04:07;;;;;;;13.83;10.43;;;;;;;;;;5030857;28;20604;-80
2022/02/27 08:06:36;;;;;;;11.37;8.23;;;;;;;;;;5030472;28;20191;-80
2022/02/27 08:09:04;;;;;;;14.20;12.50;;;;;;;;;;5030857;28;20693;-81
2022/02/27 08:11:32;;;;;;;13.67;10.23;;;;;;;;;;5030840;28;20235;-81
2022/02/27 08:13:59;;;;;;;11.67;8.90;;;;;;;;;;5030875;28;20198;-81
2022/02/27 08:16:26;;;;;;;10.77;7.97;;;;;;;;;;5030362;28;20222;-80
2022/02/27 08:18:53;;;;;;;10.03;9.10;;;;;;;;;;5030589;28;20198;-80
2022/02/27 08:21:21;;;;;;;16.13;13.97;;;;;;;;;;5030345;28;20199;-81
2022/02/27 08:23:49;;;;;;;17.67;13.27;;;;;;;;;;5030264;28;20206;-81
2022/02/27 08:26:17;;;;;;;12.67;10.77;;;;;;;;;;5030405;28;20190;-81
2022/02/27 08:28:44;;;;;;;11.80;10.33;;;;;;;;;;5030127;28;20671;-81
2022/02/27 08:31:11;;;;;;;17.47;10.37;;;;;;;;;;5030267;28;20187;-81
2022/02/27 08:33:38;;;;;;;17.77;11.73;;;;;;;;;;5030011;28;20213;-80
2022/02/27 08:36:06;;;;;;;16.40;12.83;;;;;;;;;;5030460;28;20594;-80
2022/02/27 08:38:33;;;;;;;14.47;12.97;;;;;;;;;;5029659;28;20210;-80
2022/02/27 08:41:02;;;;;;;17.80;10.17;;;;;;;;;;5030089;28;20216;-80
2022/02/27 08:43:29;;;;;;;20.17;13.03;;;;;;;;;;5030132;28;20199;-81
2022/02/27 08:45:56;;;;;;;26.03;17.83;;;;;;;;;;5030420;28;20194;-81
2022/02/27 08:48:23;;;;;;;24.73;16.87;;;;;;;;;;5030329;28;20205;-80
2022/02/27 08:50:51;;;;;;;21.87;15.13;;;;;;;;;;5029764;28;20586;-80
2022/02/27 08:53:18;;;;;;;11.27;8.83;;;;;;;;;;5029926;28;20203;-80
2022/02/27 08:55:45;;;;;;;14.93;11.80;;;;;;;;;;5030122;28;20199;-80
2022/02/27 08:58:14;;;;;;;18.83;10.17;;;;;;;;;;5029952;28;20202;-80
2022/02/27 09:00:41;;;;;;;15.03;10.80;;;;;;;;;;5029901;28;20201;-80
2022/02/27 09:03:10;;;;;;;36.63;12.83;;;;;;;;;;5030128;28;20198;-80
2022/02/27 09:05:37;;;;;;;11.20;8.47;;;;;;;;;;5030115;28;20630;-80
2022/02/27 09:08:05;;;;;;;17.17;11.93;;;;;;;;;;5029826;28;20198;-81
2022/02/27 09:10:32;;;;;;;10.73;9.17;;;;;;;;;;5029731;28;20249;-80
2022/02/27 09:12:59;;;;;;;12.53;8.17;;;;;;;;;;5029479;28;20206;-80
2022/02/27 09:15:28;;;;;;;20.37;13.13;;;;;;;;;;5029964;28;20580;-80
2022/02/27 09:17:55;;;;;;;35.47;18.27;;;;;;;;;;5029358;28;20641;-80
2022/02/27 09:20:23;;;;;;;20.20;14.70;;;;;;;;;;5029388;28;20238;-79
2022/02/27 09:22:50;;;;;;;17.33;11.53;;;;;;;;;;5029313;28;20202;-80
2022/02/27 09:25:17;;;;;;;36.47;20.70;;;;;;;;;;5029568;28;20206;-80
2022/02/27 09:27:48;;;;;;;10.83;9.20;;;;;;;;;;5029168;28;20199;-81
2022/02/27 09:30:15;;;;;;;11.67;9.17;;;;;;;;;;5030099;28;20248;-81
2022/02/27 09:32:44;;;;;;;25.97;16.57;;;;;;;;;;5029237;28;20198;-81
2022/02/27 09:35:11;;;;;;;20.03;13.97;;;;;;;;;;5029204;28;20199;-81
2022/02/27 09:37:40;;;;;;;20.33;14.10;;;;;;;;;;5029128;28;20221;-81
2022/02/27 09:40:08;;;;;;;20.53;13.17;;;;;;;;;;5029515;28;20217;-81
2022/02/27 09:42:36;;;;;;;12.93;9.83;;;;;;;;;;5029035;28;20207;-81
2022/02/27 09:45:04;;;;;;;15.63;10.17;;;;;;;;;;5029826;28;20202;-80
2022/02/27 09:47:31;;;;;;;13.50;8.87;;;;;;;;;;5029988;28;20203;-80
2022/02/27 09:50:01;;;;;;;31.10;20.13;;;;;;;;;;5029089;28;20206;-79
2022/02/27 09:52:28;;;;;;;14.03;9.13;;;;;;;;;;5029000;28;20609;-80
2022/02/27 09:54:55;;;;;;;12.00;9.50;;;;;;;;;;5028901;28;20195;-79
2022/02/27 09:57:24;;;;;;;12.70;9.70;;;;;;;;;;5028901;28;20227;-79
2022/02/27 09:59:51;;;;;;;12.83;9.03;;;;;;;;;;5029064;28;20207;-79
2022/02/27 10:02:18;;;;;;;12.60;9.53;;;;;;;;;;5029036;28;20591;-80
2022/02/27 10:04:48;;;;;;;11.60;9.43;;;;;;;;;;5028918;28;20198;-79
2022/02/27 10:07:18;;;;;;;16.33;10.57;;;;;;;;;;5028603;28;20587;-79
2022/02/27 10:09:47;;;;;;;15.63;10.63;;;;;;;;;;5029011;28;20191;-79
2022/02/27 10:12:16;;;;;;;18.50;10.73;;;;;;;;;;5028836;28;20284;-79
2022/02/27 10:14:56;;;;;;;13.57;10.17;;;;;;;;;;5029096;28;20563;-80
2022/02/27 10:17:32;;;;;;;18.40;12.60;;;;;;;;;;5028933;28;20203;-79
2022/02/27 10:20:00;;;;;;;20.00;13.80;;;;;;;;;;5028975;28;20190;-79
2022/02/27 10:22:33;;;;;;;13.97;9.90;;;;;;;;;;5028637;28;20553;-79
2022/02/27 10:25:01;;;;;;;12.00;9.07;;;;;;;;;;5028744;28;20179;-80
2022/02/27 10:27:42;;;;;;;14.03;9.60;;;;;;;;;;5028833;28;20259;-80
2022/02/27 10:30:17;;;;;;;16.30;12.40;;;;;;;;;;5028573;28;20245;-80
2022/02/27 10:32:53;;;;;;;18.37;13.03;;;;;;;;;;5028639;28;20202;-80
2022/02/27 10:35:40;;;;;;;11.53;8.53;;;;;;;;;;5028446;28;20216;-80
2022/02/27 10:38:10;;;;;;;9.97;9.00;;;;;;;;;;5028731;28;20230;-80
2022/02/27 10:40:39;;;;;;;14.40;9.77;;;;;;;;;;5028975;28;20237;-79
2022/02/27 10:43:08;;;;;;;10.30;8.57;;;;;;;;;;5028503;28;20210;-80
2022/02/27 10:45:36;;;;;;;14.30;9.20;;;;;;;;;;5028419;28;20285;-80
2022/02/27 10:48:05;;;;;;;15.43;10.83;;;;;;;;;;5028397;28;20237;-80
2022/02/27 10:50:32;;;;;;;18.40;13.03;;;;;;;;;;5028806;28;20205;-80
2022/02/27 10:52:59;;;;;;;14.97;10.10;;;;;;;;;;5028412;28;20194;-80
2022/02/27 10:55:28;;;;;;;14.73;10.07;;;;;;;;;;5028511;28;20190;-80
2022/02/27 10:57:56;;;;;;;11.97;8.60;;;;;;;;;;5028198;28;20235;-80
2022/02/27 11:00:24;;;;;;;13.13;10.57;;;;;;;;;;5029080;28;20195;-80
2022/02/27 11:02:54;;;;;;;12.23;9.53;;;;;;;;;;5032060;28;20588;-81
2022/02/27 11:05:23;;;;;;;10.57;9.37;;;;;;;;;;5032102;28;20183;-80
2022/02/27 11:07:55;;;;;;;21.63;13.00;;;;;;;;;;5031678;28;20678;-81
2022/02/27 11:10:23;;;;;;;18.53;14.73;;;;;;;;;;5031750;28;20187;-80
2022/02/27 11:12:52;;;;;;;24.43;15.20;;;;;;;;;;5031520;28;20199;-81
2022/02/27 11:15:20;;;;;;;17.60;13.73;;;;;;;;;;5031485;28;20286;-81
2022/02/27 11:17:48;;;;;;;28.33;16.83;;;;;;;;;;5031351;28;20729;-81
2022/02/27 11:20:17;;;;;;;38.93;23.17;;;;;;;;;;5032105;28;20203;-80
2022/02/27 11:22:44;;;;;;;29.20;16.73;;;;;;;;;;5031628;28;20206;-80
2022/02/27 11:25:11;;;;;;;18.67;10.80;;;;;;;;;;5031230;28;20195;-80
2022/02/27 11:27:43;;;;;;;33.00;19.60;;;;;;;;;;5031326;28;20195;-79
2022/02/27 11:30:13;;;;;;;25.53;14.60;;;;;;;;;;5031275;28;20237;-80
2022/02/27 11:32:48;;;;;;;15.37;11.37;;;;;;;;;;5031232;28;20199;-80
2022/02/27 11:35:42;;;;;;;10.47;7.43;;;;;;;;;;5031327;28;20209;-80
2022/02/27 11:38:11;;;;;;;8.63;6.90;;;;;;;;;;5031097;28;20207;-80
2022/02/27 11:40:44;;;;;;;12.20;7.87;;;;;;;;;;5031342;28;20199;-79
2022/02/27 11:43:11;;;;;;;9.23;7.47;;;;;;;;;;5030977;28;20195;-80
2022/02/27 11:45:59;;;;;;;10.57;6.60;;;;;;;;;;5030919;28;20667;-78
2022/02/27 11:48:59;;;;;;;13.67;7.97;;;;;;;;;;5031261;28;20194;-80
2022/02/27 11:51:54;;;;;;;23.07;15.20;;;;;;;;;;5031207;28;20214;-80
2022/02/27 11:54:23;;;;;;;16.17;9.73;;;;;;;;;;5018213;27;20679;-80
2022/02/27 11:57:23;;;;;;;18.80;13.10;;;;;;;;;;5030830;28;20227;-80
2022/02/27 12:00:05;;;;;;;14.03;7.97;;;;;;;;;;5033645;27;20687;-82
2022/02/27 12:02:39;;;;;;;12.23;10.43;;;;;;;;;;5030806;28;20194;-78
2022/02/27 12:05:08;;;;;;;12.87;9.63;;;;;;;;;;5031172;28;20678;-78
2022/02/27 12:08:04;;;;;;;13.97;9.77;;;;;;;;;;5030632;28;20199;-79
2022/02/27 12:10:36;;;;;;;14.13;10.30;;;;;;;;;;5030986;28;20638;-78
2022/02/27 12:13:04;;;;;;;15.07;10.00;;;;;;;;;;5029681;28;20206;-83
2022/02/27 12:15:34;;;;;;;10.23;7.63;;;;;;;;;;5034282;28;20587;-79
2022/02/27 12:18:19;;;;;;;11.50;8.93;;;;;;;;;;5030453;28;20222;-79
2022/02/27 12:20:51;;;;;;;10.37;8.50;;;;;;;;;;5030868;28;20187;-78
2022/02/27 12:23:47;;;;;;;11.83;8.87;;;;;;;;;;5030637;28;20195;-78
2022/02/27 12:26:52;;;;;;;13.13;8.33;;;;;;;;;;5030447;28;20647;-79
2022/02/27 12:29:34;;;;;;;10.13;8.80;;;;;;;;;;5030319;28;20240;-78
2022/02/27 12:32:08;;;;;;;20.27;16.37;;;;;;;;;;5030196;28;20639;-78
2022/02/27 12:34:37;;;;;;;11.10;8.43;;;;;;;;;;5030428;28;20187;-79
2022/02/27 12:37:05;;;;;;;14.57;11.87;;;;;;;;;;5029782;28;20225;-79
2022/02/27 12:39:34;;;;;;;13.60;9.97;;;;;;;;;;5030487;28;20203;-79
2022/02/27 12:42:01;;;;;;;11.30;9.30;;;;;;;;;;5029883;28;20260;-79
2022/02/27 12:44:32;;;;;;;11.57;10.17;;;;;;;;;;5030244;28;20203;-79
2022/02/27 12:47:01;;;;;;;11.40;8.07;;;;;;;;;;5030084;28;20196;-79
2022/02/27 12:52:17;;;;;;;13.57;9.50;;;;;;;;;;5030191;28;20204;-80
2022/02/27 12:54:45;;;;;;;12.90;9.97;;;;;;;;;;5033309;28;20191;-81
2022/02/27 12:57:13;;;;;;;12.50;9.70;;;;;;;;;;5031072;28;20249;-79
2022/02/27 12:59:41;;;;;;;11.73;9.70;;;;;;;;;;5031638;28;20199;-83
2022/02/27 13:02:14;;;;;;;14.17;8.97;;;;;;;;;;5033957;28;20203;-82
2022/02/27 13:04:41;;;;;;;25.77;17.43;;;;;;;;;;5031161;28;20194;-82
2022/02/27 13:07:14;;;;;;;17.13;12.87;;;;;;;;;;5032985;28;20205;-81
2022/02/27 13:09:45;;;;;;;18.50;13.20;;;;;;;;;;5032683;28;20183;-83
2022/02/27 13:12:13;;;;;;;18.70;11.80;;;;;;;;;;5033676;28;20191;-82
2022/02/27 13:14:44;;;;;;;14.30;12.37;;;;;;;;;;5031350;28;20195;-81
2022/02/27 13:17:12;;;;;;;14.40;11.87;;;;;;;;;;5031910;28;20191;-80
2022/02/27 13:19:40;;;;;;;15.43;11.70;;;;;;;;;;5030691;28;20209;-81
2022/02/27 13:22:09;;;;;;;14.80;10.17;;;;;;;;;;5029518;28;20190;-81
2022/02/27 13:24:39;;;;;;;16.77;11.67;;;;;;;;;;5028883;28;20290;-81
2022/02/27 13:27:09;;;;;;;14.27;10.50;;;;;;;;;;5029327;28;20202;-81
2022/02/27 13:29:58;;;;;;;19.13;16.83;;;;;;;;;;5029340;28;20743;-81
2022/02/27 13:32:26;;;;;;;19.73;14.70;;;;;;;;;;5027700;27;20679;-80
2022/02/27 13:34:56;;;;;;;15.10;11.37;;;;;;;;;;5029243;28;20205;-80
2022/02/27 13:37:28;;;;;;;10.83;9.27;;;;;;;;;;5029298;28;20218;-81
2022/02/27 13:39:57;;;;;;;11.03;9.30;;;;;;;;;;5029470;28;20186;-81
2022/02/27 13:42:27;;;;;;;11.77;10.00;;;;;;;;;;5029227;28;20203;-81
2022/02/27 13:44:54;;;;;;;18.60;14.83;;;;;;;;;;5029147;28;20289;-81
2022/02/27 13:47:27;;;;;;;11.33;9.57;;;;;;;;;;5029114;28;20195;-81
2022/02/27 13:49:54;;;;;;;14.33;11.57;;;;;;;;;;5029151;28;20675;-81
2022/02/27 13:52:22;;;;;;;13.33;10.20;;;;;;;;;;5028919;28;20675;-81
2022/02/27 13:54:50;;;;;;;30.00;21.23;;;;;;;;;;5029421;28;20673;-84
2022/02/27 13:57:18;;;;;;;26.50;18.70;;;;;;;;;;5029216;28;20210;-80
2022/02/27 13:59:50;;;;;;;17.57;14.80;;;;;;;;;;5029066;28;20205;-81
2022/02/27 14:02:32;;;;;;;15.43;11.03;;;;;;;;;;5029282;28;20251;-81
2022/02/27 14:05:11;;;;;;;38.23;27.87;;;;;;;;;;5028927;28;20218;-81
2022/02/27 14:07:39;;;;;;;15.03;11.77;;;;;;;;;;5029034;28;20195;-81
2022/02/27 14:10:08;;;;;;;12.10;10.70;;;;;;;;;;5029357;28;20261;-81
2022/02/27 14:12:35;;;;;;;17.23;13.70;;;;;;;;;;5028653;28;20198;-81
2022/02/27 14:15:05;;;;;;;17.13;13.10;;;;;;;;;;5028958;28;20225;-81
2022/02/27 14:17:43;;;;;;;13.63;10.33;;;;;;;;;;5029035;28;20731;-81
2022/02/27 14:20:12;;;;;;;11.53;9.73;;;;;;;;;;5028753;28;20243;-81
2022/02/27 14:22:39;;;;;;;11.20;8.73;;;;;;;;;;5028732;28;20198;-81
2022/02/27 14:25:07;;;;;;;10.23;8.80;;;;;;;;;;5028753;28;20639;-81
2022/02/27 14:27:34;;;;;;;8.93;8.03;;;;;;;;;;5028583;28;20285;-81
2022/02/27 14:30:02;;;;;;;16.50;9.47;;;;;;;;;;5028452;28;20627;-81
2022/02/27 14:32:33;;;;;;;9.60;7.90;;;;;;;;;;5028573;28;20255;-81
2022/02/27 14:35:02;;;;;;;10.90;7.90;;;;;;;;;;5028984;28;20224;-81